createdAt,value
2018-07-16T00:00:43.717Z,55.12
2018-07-16T00:03:12.930Z,55.78
2018-07-16T00:05:42.087Z,55.76
2018-07-16T00:08:11.480Z,56.27
2018-07-16T00:10:40.755Z,56.33
2018-07-16T00:13:10.059Z,57.33
2018-07-16T00:15:39.426Z,57.69
2018-07-16T00:18:08.657Z,58.15
2018-07-16T00:20:37.948Z,59.01
2018-07-16T00:23:07.329Z,59.84
2018-07-16T00:25:36.488Z,60.65
2018-07-16T00:28:05.958Z,60.23
2018-07-16T00:30:35.201Z,60.69
2018-07-16T00:33:04.472Z,60.32
2018-07-16T00:35:33.794Z,61.96
2018-07-16T00:38:03.037Z,60.53
2018-07-16T00:40:32.211Z,60.07
2018-07-16T00:43:01.462Z,60.51
2018-07-16T00:45:30.685Z,60.09
2018-07-16T00:47:59.985Z,60.09
2018-07-16T00:50:29.267Z,60.66
2018-07-16T00:52:58.560Z,59.90
2018-07-16T00:55:27.819Z,59.33
2018-07-16T00:57:57.058Z,58.67
2018-07-16T01:00:26.218Z,58.26
2018-07-16T01:02:55.473Z,57.70
2018-07-16T01:05:24.718Z,57.39
2018-07-16T01:07:53.959Z,56.81
2018-07-16T01:10:23.221Z,57.05
2018-07-16T01:12:52.553Z,56.49
2018-07-16T01:15:21.822Z,56.55
2018-07-16T01:17:51.074Z,56.00
2018-07-16T01:20:20.389Z,56.40
2018-07-16T01:22:49.641Z,56.28
2018-07-16T01:25:19.018Z,56.15
2018-07-16T01:27:48.301Z,55.92
2018-07-16T01:30:17.521Z,55.31
2018-07-16T01:32:46.766Z,55.69
2018-07-16T01:35:16.043Z,55.67
2018-07-16T01:37:45.549Z,55.28
2018-07-16T01:40:14.855Z,55.04
2018-07-16T01:42:44.307Z,54.96
2018-07-16T01:45:13.507Z,55.03
2018-07-16T01:47:42.777Z,54.95
2018-07-16T01:50:12.027Z,54.87
2018-07-16T01:52:41.478Z,55.07
2018-07-16T01:55:10.971Z,55.01
2018-07-16T01:57:40.274Z,55.18
2018-07-16T02:00:09.532Z,55.17
2018-07-16T02:02:38.842Z,54.85
2018-07-16T02:05:07.909Z,55.21
2018-07-16T02:07:37.214Z,55.08
2018-07-16T02:10:06.487Z,55.09
2018-07-16T02:12:35.823Z,55.11
2018-07-16T02:15:05.047Z,54.46
2018-07-16T02:17:34.665Z,55.10
2018-07-16T02:20:05.606Z,55.16
2018-07-16T02:22:35.107Z,55.35
2018-07-16T02:25:04.418Z,55.11
2018-07-16T02:27:33.782Z,54.94
2018-07-16T02:30:03.128Z,54.71
2018-07-16T02:32:32.485Z,54.54
2018-07-16T02:35:01.825Z,54.48
2018-07-16T02:37:31.082Z,54.53
2018-07-16T02:40:00.428Z,54.69
2018-07-16T02:42:29.887Z,54.70
2018-07-16T02:44:59.224Z,54.34
2018-07-16T02:47:28.406Z,54.63
2018-07-16T02:49:57.629Z,54.30
2018-07-16T02:52:27.000Z,53.94
2018-07-16T02:54:56.455Z,54.04
2018-07-16T02:57:25.810Z,54.27
2018-07-16T02:59:54.923Z,54.29
2018-07-16T03:02:24.294Z,54.78
2018-07-16T03:04:53.565Z,54.20
2018-07-16T03:07:22.833Z,54.02
2018-07-16T03:09:52.127Z,54.22
2018-07-16T03:12:21.498Z,54.38
2018-07-16T03:14:50.854Z,54.67
2018-07-16T03:17:20.094Z,54.90
2018-07-16T03:19:49.413Z,54.93
2018-07-16T03:22:18.591Z,54.49
2018-07-16T03:24:47.954Z,55.55
2018-07-16T03:27:17.315Z,55.84
2018-07-16T03:29:46.533Z,56.14
2018-07-16T03:32:15.834Z,56.20
2018-07-16T03:34:45.253Z,57.44
2018-07-16T03:37:14.522Z,58.20
2018-07-16T03:39:43.851Z,58.13
2018-07-16T03:42:13.111Z,57.68
2018-07-16T03:44:42.509Z,57.86
2018-07-16T03:47:11.902Z,58.85
2018-07-16T03:49:41.255Z,58.51
2018-07-16T03:52:10.770Z,59.33
2018-07-16T03:54:40.075Z,59.46
2018-07-16T03:57:09.766Z,59.48
2018-07-16T03:59:39.472Z,59.41
2018-07-16T04:02:08.850Z,58.76
2018-07-16T04:04:38.082Z,58.55
2018-07-16T04:07:07.635Z,58.50
2018-07-16T04:09:36.861Z,58.22
2018-07-16T04:12:06.256Z,59.42
2018-07-16T04:14:35.483Z,59.71
2018-07-16T04:17:04.737Z,59.08
2018-07-16T04:19:34.079Z,58.31
2018-07-16T04:22:03.385Z,57.94
2018-07-16T04:24:32.732Z,57.60
2018-07-16T04:27:02.060Z,57.67
2018-07-16T04:29:31.308Z,57.43
2018-07-16T04:32:00.675Z,57.02
2018-07-16T04:34:30.008Z,57.07
2018-07-16T04:36:59.191Z,56.82
2018-07-16T04:39:28.486Z,56.38
2018-07-16T04:41:57.846Z,56.45
2018-07-16T04:44:27.114Z,56.07
2018-07-16T04:46:56.340Z,55.53
2018-07-16T04:49:25.593Z,55.89
2018-07-16T04:51:54.854Z,55.88
2018-07-16T04:54:24.200Z,55.23
2018-07-16T04:56:53.487Z,55.55
2018-07-16T04:59:22.994Z,55.41
2018-07-16T05:01:52.343Z,54.72
2018-07-16T05:04:21.713Z,56.68
2018-07-16T05:06:50.942Z,56.63
2018-07-16T05:09:20.204Z,55.88
2018-07-16T05:11:49.484Z,54.90
2018-07-16T05:14:18.817Z,54.47
2018-07-16T05:16:50.023Z,53.16
2018-07-16T05:19:19.441Z,53.14
2018-07-16T05:21:48.822Z,53.61
2018-07-16T05:24:18.471Z,55.51
2018-07-16T05:26:47.642Z,56.13
2018-07-16T05:29:16.970Z,56.59
2018-07-16T05:31:46.461Z,58.63
2018-07-16T05:34:15.805Z,60.81
2018-07-16T05:36:45.069Z,60.94
2018-07-16T05:39:14.253Z,60.50
2018-07-16T05:41:43.566Z,59.90
2018-07-16T05:44:13.026Z,60.76
2018-07-16T05:46:42.489Z,60.23
2018-07-16T05:49:12.340Z,55.87
2018-07-16T05:51:41.680Z,56.38
2018-07-16T05:54:11.286Z,60.20
2018-07-16T05:56:40.913Z,60.79
2018-07-16T05:59:10.074Z,62.50
2018-07-16T06:01:39.320Z,60.63
2018-07-16T06:04:08.701Z,58.78
2018-07-16T06:06:38.207Z,56.77
2018-07-16T06:09:07.938Z,50.59
2018-07-16T06:11:38.060Z,51.79
2018-07-16T06:14:07.455Z,57.64
2018-07-16T06:16:37.256Z,58.32
2018-07-16T06:19:06.950Z,54.19
2018-07-16T06:21:36.390Z,49.63
2018-07-16T06:24:05.898Z,46.91
2018-07-16T06:26:35.238Z,48.74
2018-07-16T06:29:04.526Z,48.98
2018-07-16T06:31:34.026Z,51.03
2018-07-16T06:34:03.340Z,52.25
2018-07-16T06:36:32.795Z,51.60
2018-07-16T06:39:08.336Z,50.18
2018-07-16T06:41:37.923Z,52.80
2018-07-16T06:44:07.591Z,51.92
2018-07-16T06:46:36.869Z,52.90
2018-07-16T06:49:06.127Z,51.54
2018-07-16T06:51:35.468Z,50.74
2018-07-16T06:54:05.022Z,51.75
2018-07-16T06:56:34.446Z,50.39
2018-07-16T06:59:04.326Z,49.19
2018-07-16T07:01:33.586Z,49.76
2018-07-16T07:04:02.842Z,50.94
2018-07-16T07:06:33.476Z,53.42
2018-07-16T07:09:02.815Z,50.56
2018-07-16T07:11:32.211Z,52.49
2018-07-16T07:14:01.482Z,52.48
2018-07-16T07:16:31.406Z,52.36
2018-07-16T07:19:00.913Z,50.99
2018-07-16T07:21:30.230Z,54.26
2018-07-16T07:23:59.535Z,53.93
2018-07-16T07:26:29.161Z,51.92
2018-07-16T07:28:58.388Z,50.29
2018-07-16T07:31:27.737Z,51.18
2018-07-16T07:33:57.743Z,51.14
2018-07-16T07:36:27.064Z,47.80
2018-07-16T07:38:56.423Z,44.29
2018-07-16T07:41:25.627Z,45.27
2018-07-16T07:43:55.055Z,44.37
2018-07-16T07:46:24.465Z,42.32
2018-07-16T07:48:53.730Z,43.92
2018-07-16T07:51:23.058Z,44.80
2018-07-16T07:53:52.398Z,42.25
2018-07-16T07:56:22.003Z,44.41
2018-07-16T07:58:51.330Z,45.55
2018-07-16T08:01:20.585Z,42.94
2018-07-16T08:03:50.182Z,45.45
2018-07-16T08:06:20.436Z,41.62
2018-07-16T08:08:49.776Z,42.62
2018-07-16T08:11:19.327Z,42.68
2018-07-16T08:13:48.763Z,40.24
2018-07-16T08:16:18.526Z,39.26
2018-07-16T08:18:47.810Z,39.78
2018-07-16T08:21:17.257Z,43.95
2018-07-16T08:23:46.471Z,44.53
2018-07-16T08:26:15.828Z,44.73
2018-07-16T08:28:45.095Z,43.58
2018-07-16T08:31:14.331Z,43.44
2018-07-16T08:33:43.742Z,41.00
2018-07-16T08:36:13.135Z,39.32
2018-07-16T08:38:42.527Z,38.94
2018-07-16T08:41:11.946Z,41.00
2018-07-16T08:43:41.339Z,38.92
2018-07-16T08:46:10.809Z,36.28
2018-07-16T08:48:40.116Z,35.39
2018-07-16T08:51:09.438Z,36.22
2018-07-16T08:53:38.706Z,37.63
2018-07-16T08:56:08.062Z,36.06
2018-07-16T08:58:37.303Z,37.56
2018-07-16T09:01:06.683Z,38.07
2018-07-16T09:03:35.926Z,37.61
2018-07-16T09:06:06.249Z,36.68
2018-07-16T09:08:36.526Z,36.51
2018-07-16T09:11:06.049Z,35.78
2018-07-16T09:13:35.325Z,34.56
2018-07-16T09:16:04.720Z,32.63
2018-07-16T09:18:34.087Z,35.00
2018-07-16T09:21:03.516Z,34.55
2018-07-16T09:23:32.885Z,31.92
2018-07-16T09:26:02.178Z,31.09
2018-07-16T09:28:31.486Z,29.56
2018-07-16T09:31:00.719Z,32.17
2018-07-16T09:33:30.116Z,33.92
2018-07-16T09:35:59.524Z,34.06
2018-07-16T09:38:28.796Z,29.89
2018-07-16T09:40:58.242Z,28.57
2018-07-16T09:43:27.601Z,27.46
2018-07-16T09:45:56.829Z,26.83
2018-07-16T09:48:26.257Z,31.14
2018-07-16T09:50:55.518Z,32.63
2018-07-16T09:53:24.837Z,32.23
2018-07-16T09:55:54.214Z,29.14
2018-07-16T09:58:23.635Z,29.25
2018-07-16T10:00:58.130Z,27.76
2018-07-16T10:03:27.344Z,27.62
2018-07-16T10:05:56.763Z,32.14
2018-07-16T10:08:26.152Z,32.28
2018-07-16T10:10:55.419Z,33.13
2018-07-16T10:13:24.769Z,31.06
2018-07-16T10:15:54.142Z,28.58
2018-07-16T10:18:23.728Z,29.82
2018-07-16T10:20:53.259Z,31.54
2018-07-16T10:23:23.832Z,30.86
2018-07-16T10:25:53.368Z,27.16
2018-07-16T10:28:22.970Z,28.26
2018-07-16T10:30:52.164Z,27.26
2018-07-16T10:33:21.579Z,23.95
2018-07-16T10:35:50.809Z,24.11
2018-07-16T10:38:20.056Z,21.44
2018-07-16T10:40:49.822Z,26.27
2018-07-16T10:43:19.383Z,28.33
2018-07-16T10:45:49.039Z,29.68
2018-07-16T10:48:18.358Z,29.56
2018-07-16T10:50:47.528Z,27.96
2018-07-16T10:53:16.754Z,28.41
2018-07-16T10:55:46.021Z,26.23
2018-07-16T10:58:17.217Z,27.32
2018-07-16T11:00:47.505Z,27.85
2018-07-16T11:03:16.914Z,25.49
2018-07-16T11:05:46.179Z,27.50
2018-07-16T11:08:15.565Z,25.14
2018-07-16T11:10:45.048Z,24.32
2018-07-16T11:13:14.473Z,25.92
2018-07-16T11:15:43.816Z,24.18
2018-07-16T11:18:13.138Z,22.72
2018-07-16T11:20:42.294Z,24.16
2018-07-16T11:23:11.761Z,22.96
2018-07-16T11:25:41.214Z,23.11
2018-07-16T11:28:10.573Z,25.64
2018-07-16T11:30:39.730Z,24.81
2018-07-16T11:33:09.183Z,26.13
2018-07-16T11:35:38.572Z,24.00
2018-07-16T11:38:07.952Z,23.00
2018-07-16T11:40:37.326Z,21.35
2018-07-16T11:43:06.582Z,23.00
2018-07-16T11:45:35.848Z,22.20
2018-07-16T11:48:05.055Z,24.42
2018-07-16T11:50:34.223Z,24.79
2018-07-16T11:53:03.915Z,22.89
2018-07-16T11:55:33.382Z,21.84
2018-07-16T11:58:03.023Z,23.19
2018-07-16T12:00:32.234Z,21.15
2018-07-16T12:03:01.587Z,22.08
2018-07-16T12:05:31.258Z,22.19
2018-07-16T12:08:00.803Z,20.54
2018-07-16T12:10:30.170Z,19.67
2018-07-16T12:12:59.534Z,22.66
2018-07-16T12:15:28.886Z,23.19
2018-07-16T12:17:58.309Z,21.27
2018-07-16T12:20:27.509Z,24.81
2018-07-16T12:22:56.911Z,25.19
2018-07-16T12:25:26.156Z,23.67
2018-07-16T12:27:55.434Z,21.29
2018-07-16T12:30:25.242Z,20.72
2018-07-16T12:32:55.798Z,22.11
2018-07-16T12:35:25.612Z,24.78
2018-07-16T12:37:55.144Z,26.51
2018-07-16T12:40:24.614Z,25.01
2018-07-16T12:42:54.147Z,26.20
2018-07-16T12:45:23.739Z,26.04
2018-07-16T12:47:53.598Z,26.88
2018-07-16T12:50:23.157Z,27.46
2018-07-16T12:52:53.115Z,27.86
2018-07-16T12:55:22.940Z,28.42
2018-07-16T12:57:52.623Z,27.28
2018-07-16T13:00:22.097Z,25.95
2018-07-16T13:02:51.567Z,27.12
2018-07-16T13:05:20.991Z,27.08
2018-07-16T13:07:50.431Z,25.78
2018-07-16T13:10:19.805Z,24.18
2018-07-16T13:12:49.338Z,23.79
2018-07-16T13:15:18.656Z,24.58
2018-07-16T13:17:47.966Z,24.72
2018-07-16T13:20:17.244Z,25.50
2018-07-16T13:22:46.578Z,25.21
2018-07-16T13:25:15.954Z,24.15
2018-07-16T13:27:45.354Z,24.88
2018-07-16T13:30:14.627Z,25.04
2018-07-16T13:32:43.987Z,25.20
2018-07-16T13:35:13.373Z,25.81
2018-07-16T13:38:13.912Z,25.01
2018-07-16T13:40:43.354Z,25.57
2018-07-16T13:43:12.711Z,25.21
2018-07-16T13:45:41.971Z,26.23
2018-07-16T13:48:11.237Z,25.16
2018-07-16T13:50:40.661Z,25.31
2018-07-16T13:53:10.182Z,24.82
2018-07-16T13:55:39.796Z,24.94
2018-07-16T13:58:09.311Z,24.84
2018-07-16T14:00:38.882Z,24.63
2018-07-16T14:03:08.347Z,24.46
2018-07-16T14:05:37.915Z,23.39
2018-07-16T14:08:07.577Z,23.63
2018-07-16T14:10:37.125Z,23.45
2018-07-16T14:13:07.035Z,23.01
2018-07-16T14:15:36.261Z,23.18
2018-07-16T14:18:06.009Z,23.05
2018-07-16T14:20:35.469Z,23.71
2018-07-16T14:23:04.897Z,24.51
2018-07-16T14:25:34.654Z,24.15
2018-07-16T14:28:03.913Z,24.45
2018-07-16T14:30:33.203Z,24.48
2018-07-16T14:33:02.602Z,24.80
2018-07-16T14:35:32.030Z,24.91
2018-07-16T14:38:01.414Z,24.96
2018-07-16T14:40:30.734Z,25.47
2018-07-16T14:43:00.020Z,24.68
2018-07-16T14:45:29.330Z,24.87
2018-07-16T14:47:58.491Z,24.69
2018-07-16T14:50:27.720Z,24.49
2018-07-16T14:52:57.091Z,23.46
2018-07-16T14:55:26.434Z,23.89
2018-07-16T14:57:55.817Z,23.03
2018-07-16T15:00:26.403Z,22.79
2018-07-16T15:02:55.936Z,22.57
2018-07-16T15:05:25.383Z,21.79
2018-07-16T15:07:54.762Z,22.62
2018-07-16T15:10:24.158Z,21.30
2018-07-16T15:12:53.569Z,20.75
2018-07-16T15:15:23.110Z,21.06
2018-07-16T15:17:52.343Z,21.55
2018-07-16T15:20:21.781Z,21.76
2018-07-16T15:22:51.153Z,19.89
2018-07-16T15:25:20.719Z,20.26
2018-07-16T15:27:49.984Z,20.93
2018-07-16T15:30:19.401Z,22.38
2018-07-16T15:32:48.891Z,22.69
2018-07-16T15:35:18.211Z,21.79
2018-07-16T15:37:47.553Z,25.82
2018-07-16T15:40:16.584Z,25.85
2018-07-16T15:42:46.141Z,25.38
2018-07-16T15:45:15.158Z,24.69
2018-07-16T15:47:44.378Z,25.22
2018-07-16T15:50:13.837Z,21.69
2018-07-16T15:52:43.185Z,21.06
2018-07-16T15:55:12.499Z,19.80
2018-07-16T15:57:41.760Z,20.84
2018-07-16T16:00:11.625Z,20.73
2018-07-16T16:02:40.925Z,21.10
2018-07-16T16:05:10.315Z,21.41
2018-07-16T16:07:39.674Z,19.87
2018-07-16T16:10:08.910Z,20.71
2018-07-16T16:12:38.194Z,21.62
2018-07-16T16:15:07.535Z,20.72
2018-07-16T16:17:36.851Z,20.80
2018-07-16T16:20:06.481Z,20.36
2018-07-16T16:22:35.720Z,20.80
2018-07-16T16:25:05.032Z,20.90
2018-07-16T16:27:34.288Z,22.19
2018-07-16T16:30:03.624Z,21.83
2018-07-16T16:32:32.875Z,21.96
2018-07-16T16:35:02.123Z,21.42
2018-07-16T16:37:31.537Z,21.37
2018-07-16T16:40:00.817Z,20.93
2018-07-16T16:42:30.318Z,21.38
2018-07-16T16:44:59.655Z,21.41
2018-07-16T16:47:28.917Z,20.83
2018-07-16T16:49:59.420Z,20.58
2018-07-16T16:52:28.785Z,20.39
2018-07-16T16:54:58.165Z,20.83
2018-07-16T16:57:27.539Z,20.52
2018-07-16T16:59:56.894Z,20.32
2018-07-16T17:02:26.543Z,19.83
2018-07-16T17:04:55.907Z,20.53
2018-07-16T17:07:25.163Z,20.86
2018-07-16T17:09:54.511Z,20.29
2018-07-16T17:12:23.763Z,20.82
2018-07-16T17:14:53.083Z,20.96
2018-07-16T17:17:22.470Z,20.51
2018-07-16T17:19:51.805Z,20.88
2018-07-16T17:22:21.185Z,21.08
2018-07-16T17:24:50.542Z,20.97
2018-07-16T17:27:19.869Z,21.42
2018-07-16T17:29:49.208Z,21.04
2018-07-16T17:32:18.674Z,21.80
2018-07-16T17:34:48.056Z,21.53
2018-07-16T17:37:17.314Z,21.22
2018-07-16T17:39:46.634Z,21.67
2018-07-16T17:42:15.912Z,21.24
2018-07-16T17:44:45.246Z,20.72
2018-07-16T17:47:14.523Z,20.64
2018-07-16T17:49:44.485Z,20.54
2018-07-16T17:52:13.998Z,21.03
2018-07-16T17:54:43.583Z,20.60
2018-07-16T17:57:12.821Z,20.92
2018-07-16T17:59:42.164Z,20.74
2018-07-16T18:02:11.516Z,20.83
2018-07-16T18:04:40.944Z,21.35
2018-07-16T18:07:10.363Z,20.78
2018-07-16T18:09:39.746Z,21.09
2018-07-16T18:12:09.074Z,20.66
2018-07-16T18:14:38.332Z,20.45
2018-07-16T18:17:07.679Z,20.81
2018-07-16T18:19:37.254Z,22.32
2018-07-16T18:22:06.554Z,23.53
2018-07-16T18:24:35.842Z,23.46
2018-07-16T18:27:05.172Z,23.69
2018-07-16T18:29:34.433Z,23.73
2018-07-16T18:32:03.849Z,23.61
2018-07-16T18:34:33.131Z,23.67
2018-07-16T18:37:02.382Z,24.86
2018-07-16T18:39:31.631Z,25.48
2018-07-16T18:42:00.907Z,25.09
2018-07-16T18:44:30.155Z,26.38
2018-07-16T18:46:59.585Z,26.67
2018-07-16T18:49:28.963Z,26.92
2018-07-16T18:51:58.173Z,26.79
2018-07-16T18:54:27.539Z,27.21
2018-07-16T18:56:56.875Z,27.38
2018-07-16T18:59:26.260Z,28.00
2018-07-16T19:01:56.886Z,28.29
2018-07-16T19:04:26.214Z,28.74
2018-07-16T19:06:59.555Z,29.61
2018-07-16T19:09:28.838Z,28.84
2018-07-16T19:11:58.114Z,28.69
2018-07-16T19:14:27.495Z,28.89
2018-07-16T19:16:56.828Z,29.48
2018-07-16T19:19:26.293Z,29.87
2018-07-16T19:21:55.742Z,29.92
2018-07-16T19:24:25.092Z,28.98
2018-07-16T19:26:54.430Z,29.11
2018-07-16T19:29:23.694Z,30.09
2018-07-16T19:31:52.927Z,30.39
2018-07-16T19:34:22.198Z,32.20
2018-07-16T19:36:51.639Z,31.64
2018-07-16T19:39:21.414Z,30.43
2018-07-16T19:41:51.251Z,30.02
2018-07-16T19:44:20.542Z,29.73
2018-07-16T19:46:50.263Z,30.08
2018-07-16T19:49:19.646Z,29.90
2018-07-16T19:51:49.179Z,30.50
2018-07-16T19:54:18.552Z,30.22
2018-07-16T19:56:47.807Z,30.44
2018-07-16T19:59:17.144Z,30.44
2018-07-16T20:01:46.370Z,30.36
2018-07-16T20:04:15.652Z,30.24
2018-07-16T20:06:45.278Z,30.10
2018-07-16T20:09:14.652Z,30.96
2018-07-16T20:11:44.010Z,30.97
2018-07-16T20:14:13.261Z,31.93
2018-07-16T20:16:43.579Z,31.75
2018-07-16T20:19:13.142Z,31.72
2018-07-16T20:21:42.527Z,31.53
2018-07-16T20:24:11.776Z,31.35
2018-07-16T20:26:41.136Z,31.67
2018-07-16T20:29:10.361Z,31.66
2018-07-16T20:31:39.589Z,32.36
2018-07-16T20:34:08.815Z,32.50
2018-07-16T20:36:38.160Z,33.63
2018-07-16T20:39:10.175Z,34.64
2018-07-16T20:41:39.584Z,34.84
2018-07-16T20:44:08.834Z,34.67
2018-07-16T20:46:38.070Z,34.87
2018-07-16T20:49:07.466Z,34.33
2018-07-16T20:51:36.699Z,34.55
2018-07-16T20:54:05.942Z,34.04
2018-07-16T20:56:35.183Z,34.13
2018-07-16T20:59:04.426Z,34.18
2018-07-16T21:01:34.003Z,34.73
2018-07-16T21:04:03.256Z,35.78
2018-07-16T21:06:32.555Z,35.87
2018-07-16T21:09:01.849Z,35.59
2018-07-16T21:11:31.190Z,35.73
2018-07-16T21:14:00.610Z,35.18
2018-07-16T21:16:30.477Z,35.01
2018-07-16T21:18:59.815Z,35.18
2018-07-16T21:21:29.312Z,35.44
2018-07-16T21:23:58.517Z,35.26
2018-07-16T21:26:27.826Z,35.04
2018-07-16T21:28:57.186Z,35.13
2018-07-16T21:31:26.342Z,35.39
2018-07-16T21:33:55.899Z,36.28
2018-07-16T21:36:25.075Z,35.30
2018-07-16T21:38:58.622Z,35.78
2018-07-16T21:41:28.524Z,35.38
2018-07-16T21:43:57.770Z,35.63
2018-07-16T21:46:26.993Z,36.97
2018-07-16T21:48:56.337Z,36.52
2018-07-16T21:51:25.639Z,37.12
2018-07-16T21:53:55.037Z,40.65
2018-07-16T21:56:24.422Z,41.30
2018-07-16T21:58:53.622Z,40.21
2018-07-16T22:01:23.002Z,40.06
2018-07-16T22:03:52.161Z,40.31
2018-07-16T22:06:21.411Z,40.17
2018-07-16T22:08:50.771Z,39.74
2018-07-16T22:11:20.130Z,39.85
2018-07-16T22:13:49.531Z,39.53
2018-07-16T22:16:19.078Z,39.56
2018-07-16T22:18:48.359Z,39.37
2018-07-16T22:21:17.644Z,39.59
2018-07-16T22:23:47.056Z,39.61
2018-07-16T22:26:16.309Z,39.73
2018-07-16T22:28:45.579Z,39.67
2018-07-16T22:31:14.808Z,39.87
2018-07-16T22:33:44.036Z,40.14
2018-07-16T22:36:13.419Z,39.76
2018-07-16T22:38:42.666Z,40.00
2018-07-16T22:41:12.125Z,39.86
2018-07-16T22:43:41.352Z,39.95
2018-07-16T22:46:10.654Z,39.45
2018-07-16T22:48:40.077Z,39.38
2018-07-16T22:51:09.346Z,39.35
2018-07-16T22:53:38.762Z,39.19
2018-07-16T22:56:08.119Z,38.85
2018-07-16T22:58:37.463Z,39.16
2018-07-16T23:01:06.812Z,39.63
2018-07-16T23:03:36.169Z,39.29
2018-07-16T23:06:05.565Z,38.75
2018-07-16T23:08:34.884Z,38.95
2018-07-16T23:11:04.252Z,38.39
2018-07-16T23:13:33.591Z,38.38
2018-07-16T23:16:02.999Z,38.99
2018-07-16T23:18:32.368Z,38.81
2018-07-16T23:21:01.635Z,39.00
2018-07-16T23:23:31.098Z,39.28
2018-07-16T23:26:00.238Z,39.41
2018-07-16T23:28:29.552Z,39.46
2018-07-16T23:30:58.739Z,39.76
2018-07-16T23:33:28.090Z,39.69
2018-07-16T23:35:57.487Z,40.18
2018-07-16T23:38:26.909Z,40.15
2018-07-16T23:40:56.282Z,40.07
2018-07-16T23:43:25.602Z,40.84
2018-07-16T23:45:54.942Z,40.93
2018-07-16T23:48:24.187Z,41.06
2018-07-16T23:50:53.444Z,40.62
2018-07-16T23:53:22.707Z,41.00
2018-07-16T23:55:52.065Z,40.95
2018-07-16T23:58:21.370Z,41.04
